NCAR-RAP Real-Time Weather Data

Output produced by METARs form (05 December 2019  15:09 UTC)
found at http://weather.rap.ucar.edu/surface/
 
RJCB 051100Z VRB01KT 9999 FEW040 M08/M12 Q1016
 
RJCC 051500Z 00000KT 9999 FEW010 M10/M11 Q1019 RMK 1ST010 A3012
 
RJCH 051100Z 35004KT 310V010 5000 -SHSN FEW015 SCT030 M08/M09 Q1021
 
RJCK 051100Z 28005KT 9999 FEW030 M05/M12 Q1015
 
RJCM 051100Z 24003KT 190V290 9999 FEW040 M05/M13 Q1016
 
 
RJEC 051100Z 16008KT 9999 -SHSN FEW008 SCT030 BKN050 M06/M09 Q1017
 
RJSA 051232Z 23008KT 0800 R24/P1800N SHSN FEW001 SCT003 BKN005 M04/M06 Q1021 RMK 1ST001 4ST003 6ST005 A3015
 
RJSC 051000Z VRB02KT 6000 -SHSN FEW003 SCT010 BKN015 01/M00 Q1022
 
RJSF 051100Z 32004KT 280V350 9999 FEW020 SCT040 BKN060 02/M02 Q1020
 
RJSI 051000Z VRB02KT 2000 -SHSN FEW005 SCT015 BKN025 M02/M03 Q1022
 
RJSK 051200Z 33008KT 300V360 9999 -SHSN FEW015 SCT020 BKN030 M01/M03 Q1022
 
RJSM 051500Z 26007KT 7000 -SHSN SCT015 BKN030 M04/M05 Q1021
 
RJSN 051200Z 32020KT 9999 -SHRASN FEW010 BKN020 BKN030 04/01 Q1024
 
RJSR 051000Z 28006KT 230V300 6000 -SHSN FEW003 SCT015 BKN040 M03/M05 Q1022
 
RJSS 051200Z VRB01KT 9999 FEW010 BKN080 01/M02 Q1022
 
RJSY 051200Z 30018G29KT 260V330 9999 -SHSN FEW020 SCT025 BKN035 03/M03 Q1022